Main page
METAR-TAF:

METAR-TAF

Airports :

London-Luton, England

Luton Airport

latitude: 51-52N, longitude: 000-22W, elevation: 160 m

Current weather observation

The report was made 21 minutes ago, at 07:50 UTC
Wind 5 kt from the East/Northeast
Temperature 0°C
Humidity 93%
Pressure 1024 hPa
Visibility 10 km or more

METAR: EGGW 040750Z AUTO 06005KT 9999 NCD M00/M01 Q1024

Time: 08:11 (08:11 UTC)

Forecast

The report was made 3 hours and 13 minutes ago, at 04:58 UTC
Forecast valid from 04 at 06 UTC to 05 at 06 UTC
Wind 5 kt from the East
Visibility 10 km or more
Few clouds at a height of 3000 ft
Probability 30%
from 04 at 20 UTC to 05 at 01 UTC
Visibility: 7000 m
Becoming
from 05 at 01 UTC to 05 at 03 UTC
Visibility: 3000 m
Broken clouds at a height of 200 ft
mist
Temporary
from 05 at 02 UTC to 05 at 06 UTC
Visibility: 0300 m
freezing fog

TAF: EGGW 040458Z 0406/0506 08005KT 9999 FEW030 PROB30 0420/0501 7000 BECMG 0501/0503 3000 BR BKN002 TEMPO 0502/0506 0300 FZFG VV///

Weather observations and forecasts of more than 4000 airports (METAR and TAF reports).

The available stations are represented by yellow and red dots on the map.

Hover mouse over dot to see the name of the station.

Then click to see weather observations and forecasts.

To change the map : click on the green buttons with a black cross to zoom in, on the green button with a dash to zoom out, or on the green arrows for adjacent maps.


METAR-TAF: